Airfield :
LOGIN :

Register | Disclaimer

   EN    FR    IT 

 










Legend :    VFR   Marginal VFR   IFR   Intensive IFR   Very Intensive IFR
Visi :
Ceiling :
>= 8 km
>= 3000ft
5 to 8 km
1000 to 3000 ft
1500m to 5 km
500 to 1000 ft
800 to 1500m
200 to 500 ft
< 800m
< 200 ft
Symbols :   Thunderstorms  Fog  Heavy snow  Heavy precipitations  Wind > 20 kt
SIGMETs :     Misc.  Thunderstorms  Icing  Turbulence  Mountain Waves  Volcanic Ashes






- Airport Elevation : 392 ft
- IATA code : CDG


LFPG - Paris-Aeroport Charles De Gaulle

CURRENT METAR :
  • 230430Z 23004KT 9999 SCT006 BKN008 15/14 Q1011 TEMPO 4000 BR BKN004

EXPIRED METARs :
  • 230400Z 17004KT 9999 BKN008 15/14 Q1011 TEMPO 4000 BR BKN004
  • 230330Z 16004KT 9999 SCT007 BKN013 15/14 Q1011 TEMPO 4000 BR BKN004
  • 230300Z 18004KT 160V220 9999 SCT007 BKN008 15/13 Q1012 TEMPO 4000 BR BKN004
  • 230230Z 19005KT 9999 SCT007 BKN008 15/13 Q1012 TEMPO 4000 BR BKN004
  • 230200Z 20005KT 9999 BKN008 SCT012 15/13 Q1012 TEMPO 4000 BR BKN004

TAF TAF LFPG
Valid from the 23 at 00:00 until the 24 at 06:00 UTC


222300Z 2300/2406 19005KT 9999 SCT025 TX17/2314Z TN11/2406Z
PROB40
TEMPO 2300/2302 3000 SHRA SCT008TCU
TEMPO 2300/2311 BKN008
PROB40
TEMPO 2303/2310 4000 BR BKN004
PROB30
TEMPO 2303/2308 0600 FG VV///
ATIS : +33 1 48 62 10 92



MET'MAP, your aeronautical weather chart ! - Copyright ORBIFLY December 2007 - Disclaimer

ORBIFLY MET'MAP TEAM :

Programming & Development : Alexandra Zaïnal
Concept & original design : Baudouin d'Aumeries
Assistance for programming : Marc-Olivier Méhu
Technical & hardware support : Manuel Goepfert

Contact : metmap@orbifly.com




SOURCES & CREDITS :

   NOAA